Time;durP1;ratioP1;P1;durP2;ratioP2;P2;SDS_P1;SDS_P2;PMS_P1;PMS_P2;Temp;Humidity;BMP_temperature;BMP_pressure;BME280_temperature;BME280_humidity;BME280_pressure;Samples;Min_cycle;Max_cycle;Signal;HPM_P1;HPM_P2
2021/04/11 00:00:43;;;;;;;5.90;4.75;;;6.20;74.60;;;;;;5093813;28;20059;-74
2021/04/11 00:03:14;;;;;;;7.78;4.35;;;6.20;74.70;;;;;;5094020;28;20036;-74
2021/04/11 00:05:40;;;;;;;5.32;3.83;;;6.20;74.60;;;;;;5091005;28;20052;-74
2021/04/11 00:08:07;;;;;;;5.68;3.97;;;6.20;74.50;;;;;;5090748;28;20412;-74
2021/04/11 00:10:34;;;;;;;5.40;3.75;;;6.20;74.70;;;;;;5089946;28;20051;-74
2021/04/11 00:13:01;;;;;;;4.30;3.72;;;6.20;74.50;;;;;;5092956;28;20040;-74
2021/04/11 00:15:29;;;;;;;5.03;4.22;;;6.20;74.60;;;;;;5078378;28;20044;-74
2021/04/11 00:17:55;;;;;;;6.80;4.65;;;6.10;74.50;;;;;;5093345;28;20067;-75
2021/04/11 00:20:21;;;;;;;5.75;5.13;;;6.10;74.70;;;;;;5094005;28;20082;-74
2021/04/11 00:22:46;;;;;;;6.88;5.30;;;6.10;74.70;;;;;;5075096;28;20093;-74
2021/04/11 00:25:16;;;;;;;5.95;5.35;;;6.10;74.60;;;;;;5091135;28;20713;-74
2021/04/11 00:27:43;;;;;;;6.20;5.35;;;6.10;74.70;;;;;;5092735;28;20111;-75
2021/04/11 00:30:09;;;;;;;6.68;5.97;;;6.10;74.90;;;;;;5072610;28;20052;-74
2021/04/11 00:32:35;;;;;;;7.22;5.80;;;6.10;74.90;;;;;;5071607;28;20124;-75
2021/04/11 00:35:00;;;;;;;6.95;5.95;;;6.10;74.90;;;;;;5089099;28;20126;-74
2021/04/11 00:37:26;;;;;;;5.78;5.05;;;6.10;74.80;;;;;;5089334;28;20036;-74
2021/04/11 00:39:52;;;;;;;7.20;5.80;;;6.10;74.80;;;;;;5089467;28;20040;-75
2021/04/11 00:42:29;;;;;;;6.05;5.40;;;6.10;75.50;;;;;;5072690;28;20056;-74
2021/04/11 00:45:35;;;;;;;6.22;5.40;;;6.10;74.90;;;;;;5106489;28;20040;-75
2021/04/11 00:48:01;;;;;;;6.65;5.30;;;6.10;75.00;;;;;;5068641;28;20465;-74
2021/04/11 00:50:27;;;;;;;7.15;5.47;;;6.00;74.70;;;;;;5054882;28;20037;-75
2021/04/11 00:52:53;;;;;;;6.70;6.00;;;6.10;74.80;;;;;;5056385;28;20048;-74
2021/04/11 00:55:21;;;;;;;5.97;5.38;;;6.10;74.80;;;;;;5059484;28;20052;-75
2021/04/11 00:57:47;;;;;;;7.25;5.82;;;6.00;75.00;;;;;;5060241;28;20090;-75
2021/04/11 01:00:13;;;;;;;6.22;5.63;;;6.10;74.80;;;;;;5074646;28;20052;-74
2021/04/11 01:02:39;;;;;;;6.55;5.85;;;6.00;75.00;;;;;;5114081;28;20040;-74
2021/04/11 01:05:25;;;;;;;7.07;5.85;;;6.00;75.00;;;;;;5079517;28;20407;-74
2021/04/11 01:07:51;;;;;;;7.32;6.43;;;6.10;75.10;;;;;;5115161;27;20056;-74
2021/04/11 01:10:22;;;;;;;8.18;5.85;;;6.00;74.90;;;;;;5113400;28;20048;-74
2021/04/11 01:12:48;;;;;;;6.82;5.88;;;6.00;75.00;;;;;;5097323;28;20055;-74
2021/04/11 01:15:22;;;;;;;6.95;5.35;;;6.00;75.00;;;;;;5113210;28;20477;-74
2021/04/11 01:17:48;;;;;;;6.22;5.63;;;6.00;75.20;;;;;;5114918;27;20048;-74
2021/04/11 01:20:18;;;;;;;6.80;5.78;;;6.00;75.30;;;;;;5097201;28;20050;-75
2021/04/11 01:23:08;;;;;;;6.47;5.38;;;6.00;75.20;;;;;;5079520;28;20039;-74
2021/04/11 01:25:34;;;;;;;6.45;5.15;;;6.00;75.40;;;;;;5096631;28;20048;-74
2021/04/11 01:28:00;;;;;;;8.73;5.45;;;6.00;75.20;;;;;;5112971;28;20054;-74
2021/04/11 01:30:37;;;;;;;7.00;5.15;;;6.00;75.30;;;;;;5096623;28;20048;-72
2021/04/11 01:33:05;;;;;;;7.60;5.00;;;6.00;75.50;;;;;;5095861;28;20423;-73
2021/04/11 01:35:30;;;;;;;5.35;4.65;;;6.00;75.30;;;;;;5095961;28;20463;-74
2021/04/11 01:37:57;;;;;;;5.93;5.15;;;6.00;75.20;;;;;;5096263;28;20085;-75
2021/04/11 01:40:48;;;;;;;5.93;4.20;;;6.00;75.20;;;;;;5112719;28;20089;-74
2021/04/11 01:43:14;;;;;;;6.38;5.20;;;6.00;75.10;;;;;;5073811;28;20055;-75
2021/04/11 01:45:40;;;;;;;5.70;4.88;;;6.00;75.00;;;;;;5079258;28;20052;-74
2021/04/11 01:48:07;;;;;;;6.55;4.95;;;6.00;75.00;;;;;;5112700;27;20040;-74
2021/04/11 01:50:33;;;;;;;5.65;4.68;;;6.00;75.00;;;;;;5096472;28;20036;-74
2021/04/11 01:52:59;;;;;;;5.85;4.40;;;6.00;75.70;;;;;;5079819;28;20055;-74
2021/04/11 01:55:26;;;;;;;5.30;4.50;;;6.00;75.10;;;;;;5112032;28;20044;-74
2021/04/11 01:57:53;;;;;;;5.70;4.93;;;6.00;75.00;;;;;;5096046;28;20134;-74
2021/04/11 02:00:31;;;;;;;8.50;4.97;;;6.00;75.10;;;;;;5095772;28;20040;-74
2021/04/11 02:02:57;;;;;;;5.97;4.43;;;6.00;75.20;;;;;;5097037;28;20059;-75
2021/04/11 02:05:23;;;;;;;7.00;4.70;;;6.00;75.20;;;;;;5111923;28;20044;-73
2021/04/11 02:07:51;;;;;;;6.40;4.53;;;6.00;75.20;;;;;;5111980;28;20090;-73
2021/04/11 02:10:18;;;;;;;6.53;4.88;;;6.00;75.20;;;;;;5096345;28;20039;-73
2021/04/11 02:12:45;;;;;;;5.43;4.32;;;6.00;75.40;;;;;;5112334;28;20046;-74
2021/04/11 02:15:16;;;;;;;5.45;4.95;;;6.00;75.40;;;;;;5112068;28;20040;-74
2021/04/11 02:17:42;;;;;;;5.68;4.00;;;6.00;75.30;;;;;;5096204;28;20048;-74
2021/04/11 02:20:10;;;;;;;4.68;3.90;;;6.00;75.40;;;;;;5078065;28;20048;-73
2021/04/11 02:22:35;;;;;;;6.03;4.05;;;6.00;75.40;;;;;;5094721;28;20044;-74
2021/04/11 02:25:01;;;;;;;5.30;4.28;;;6.00;75.50;;;;;;5086876;28;20040;-75
2021/04/11 02:27:27;;;;;;;6.20;4.22;;;6.00;75.50;;;;;;5094244;28;20044;-74
2021/04/11 02:29:53;;;;;;;6.32;4.25;;;6.00;75.60;;;;;;5078570;28;20097;-74
2021/04/11 02:32:19;;;;;;;5.40;3.83;;;6.10;75.60;;;;;;5094428;28;20040;-74
2021/04/11 02:34:45;;;;;;;4.38;3.72;;;6.10;75.70;;;;;;5095174;28;20123;-74
2021/04/11 02:37:20;;;;;;;5.18;3.78;;;6.00;75.60;;;;;;5094339;28;20044;-74
2021/04/11 02:39:46;;;;;;;4.72;3.70;;;6.10;75.70;;;;;;5112712;27;20540;-75
2021/04/11 02:42:15;;;;;;;5.18;4.15;;;6.10;75.80;;;;;;5094503;28;20076;-74
2021/04/11 02:44:45;;;;;;;6.00;3.92;;;6.00;75.70;;;;;;5094913;28;20048;-74
2021/04/11 02:47:11;;;;;;;6.38;3.97;;;6.10;75.90;;;;;;5094444;28;20173;-73
2021/04/11 02:49:37;;;;;;;4.78;4.28;;;6.00;76.00;;;;;;5077964;28;20036;-74
2021/04/11 02:52:05;;;;;;;4.40;4.00;;;6.00;76.00;;;;;;5094816;28;20063;-73
2021/04/11 02:54:30;;;;;;;4.95;3.67;;;6.10;76.00;;;;;;5111054;27;20457;-72
2021/04/11 02:56:57;;;;;;;5.32;3.80;;;6.10;75.90;;;;;;5094674;28;20138;-74
2021/04/11 02:59:23;;;;;;;4.05;3.65;;;6.10;75.90;;;;;;5076852;28;20056;-74
2021/04/11 03:01:48;;;;;;;3.70;3.35;;;6.10;75.90;;;;;;5094786;28;20162;-74
2021/04/11 03:04:16;;;;;;;5.40;3.58;;;6.10;75.90;;;;;;5077145;28;20126;-75
2021/04/11 03:06:44;;;;;;;4.45;3.20;;;6.10;75.90;;;;;;5094345;28;20048;-75
2021/04/11 03:09:21;;;;;;;4.15;3.10;;;6.10;76.00;;;;;;5077353;28;20107;-74
2021/04/11 03:11:52;;;;;;;3.65;3.17;;;6.10;76.10;;;;;;5094869;28;20044;-74
2021/04/11 03:14:19;;;;;;;6.25;3.15;;;6.10;76.00;;;;;;5094004;28;20044;-74
2021/04/11 03:16:45;;;;;;;3.20;2.90;;;6.10;76.10;;;;;;5094113;28;20044;-74
2021/04/11 03:19:14;;;;;;;3.35;2.45;;;6.10;75.90;;;;;;5076623;28;20051;-74
2021/04/11 03:21:43;;;;;;;3.30;2.58;;;6.10;76.00;;;;;;5093275;28;20050;-75
2021/04/11 03:24:09;;;;;;;3.53;2.60;;;6.10;76.10;;;;;;5059575;28;20044;-75
2021/04/11 03:26:47;;;;;;;3.20;2.58;;;6.10;76.10;;;;;;5090968;28;20040;-74
2021/04/11 03:29:17;;;;;;;2.85;2.30;;;6.10;76.00;;;;;;5091436;28;20040;-75
2021/04/11 03:31:51;;;;;;;5.03;2.20;;;6.10;76.10;;;;;;5092010;28;20071;-75
2021/04/11 03:34:17;;;;;;;3.08;2.05;;;6.10;76.00;;;;;;5094381;28;20102;-73
2021/04/11 03:36:43;;;;;;;2.08;1.88;;;6.10;76.00;;;;;;5077058;28;20415;-74
2021/04/11 03:39:09;;;;;;;2.70;2.15;;;6.00;75.90;;;;;;5093913;28;20070;-74
2021/04/11 03:41:35;;;;;;;2.00;1.80;;;6.10;76.00;;;;;;5093380;28;20105;-74
2021/04/11 03:44:05;;;;;;;2.10;1.83;;;6.10;76.00;;;;;;5094095;28;20048;-75
2021/04/11 03:46:50;;;;;;;3.15;2.10;;;6.10;76.00;;;;;;5076418;28;20062;-73
2021/04/11 03:49:45;;;;;;;2.58;1.77;;;6.10;76.10;;;;;;5076762;28;20036;-74
2021/04/11 03:52:17;;;;;;;2.15;1.95;;;6.10;76.10;;;;;;5094125;28;20048;-74
2021/04/11 03:54:42;;;;;;;3.42;2.00;;;6.00;75.90;;;;;;5093986;28;20168;-74
2021/04/11 03:57:20;;;;;;;3.47;1.77;;;6.10;75.90;;;;;;5093556;28;20061;-75
2021/04/11 03:59:48;;;;;;;2.17;1.85;;;6.00;76.00;;;;;;5093836;28;20105;-74
2021/04/11 04:02:15;;;;;;;2.55;1.67;;;6.00;76.00;;;;;;5093298;28;20036;-75
2021/04/11 04:04:41;;;;;;;2.75;1.92;;;6.00;76.00;;;;;;5092731;28;20051;-75
2021/04/11 04:07:13;;;;;;;2.20;1.58;;;6.00;76.10;;;;;;5076572;28;20044;-75
2021/04/11 04:09:44;;;;;;;2.05;1.60;;;5.90;76.20;;;;;;5075030;28;20075;-75
2021/04/11 04:12:28;;;;;;;2.33;1.63;;;5.90;76.20;;;;;;5071257;28;20512;-74
2021/04/11 04:15:08;;;;;;;1.98;1.20;;;5.90;76.30;;;;;;5086485;28;20115;-75
2021/04/11 04:17:45;;;;;;;2.30;1.38;;;5.90;76.40;;;;;;5090040;28;20050;-74
2021/04/11 04:20:44;;;;;;;2.90;1.10;;;5.90;76.50;;;;;;5091676;28;20096;-74
2021/04/11 04:23:18;;;;;;;2.75;1.30;;;5.90;76.70;;;;;;5090827;28;20032;-75
2021/04/11 04:25:55;;;;;;;4.25;1.25;;;5.90;76.50;;;;;;5093733;28;20425;-74
2021/04/11 04:28:41;;;;;;;1.70;1.27;;;5.90;76.50;;;;;;5077421;28;20036;-74
2021/04/11 04:31:50;;;;;;;2.33;1.60;;;5.80;76.60;;;;;;5084497;28;20044;-74
2021/04/11 04:34:43;;;;;;;1.75;1.40;;;5.80;76.80;;;;;;5098975;28;20040;-74
2021/04/11 04:37:34;;;;;;;1.52;1.33;;;5.80;76.70;;;;;;5098981;28;20074;-73
2021/04/11 04:40:08;;;;;;;3.25;1.52;;;5.90;76.70;;;;;;5098530;28;20052;-74
2021/04/11 04:42:48;;;;;;;1.45;1.30;;;5.80;76.50;;;;;;5098995;28;20047;-73
2021/04/11 04:45:23;;;;;;;2.53;1.50;;;5.80;76.60;;;;;;5081292;28;20048;-75
2021/04/11 04:48:09;;;;;;;2.65;1.40;;;5.80;76.50;;;;;;5099744;28;20484;-73
2021/04/11 04:50:41;;;;;;;2.35;1.48;;;5.80;76.50;;;;;;5083620;28;20082;-75
2021/04/11 04:53:19;;;;;;;;;;;5.80;76.50;;;;;;5099098;28;20036;-74
2021/04/11 04:55:52;;;;;;;2.20;1.40;;;5.70;77.10;;;;;;5084753;28;19920;-74
2021/04/11 04:58:26;;;;;;;2.92;1.33;;;5.70;76.50;;;;;;5128340;27;20101;-74
2021/04/11 05:00:55;;;;;;;1.85;1.00;;;5.70;76.60;;;;;;5098432;28;20373;-74
2021/04/11 05:03:41;;;;;;;4.05;1.27;;;5.70;76.60;;;;;;5115141;27;20143;-74
2021/04/11 05:06:26;;;;;;;2.53;1.48;;;5.70;76.70;;;;;;5086378;28;20393;-75
2021/04/11 05:09:15;;;;;;;1.25;1.10;;;5.70;76.80;;;;;;5097408;28;20052;-74
2021/04/11 05:11:54;;;;;;;1.73;1.27;;;5.70;77.00;;;;;;5080352;28;20032;-74
2021/04/11 05:14:25;;;;;;;2.15;1.40;;;5.70;76.80;;;;;;5082081;28;20040;-74
2021/04/11 05:16:58;;;;;;;3.35;1.48;;;5.70;76.90;;;;;;5115457;27;20094;-74
2021/04/11 05:19:36;;;;;;;2.22;1.40;;;5.70;76.90;;;;;;5081675;28;20064;-74
2021/04/11 05:22:19;;;;;;;1.70;1.23;;;5.60;76.90;;;;;;5115518;27;20392;-74
2021/04/11 05:24:49;;;;;;;;;;;5.60;76.90;;;;;;5097631;28;20032;-75
2021/04/11 05:27:22;;;;;;;1.92;1.23;;;5.60;77.60;;;;;;5098364;28;19926;-75
2021/04/11 05:30:16;;;;;;;2.72;1.17;;;5.60;76.90;;;;;;5080763;28;20040;-75
2021/04/11 05:32:41;;;;;;;1.83;1.30;;;5.60;77.20;;;;;;5097200;28;20104;-73
2021/04/11 05:35:08;;;;;;;1.45;1.10;;;5.60;77.00;;;;;;5114687;28;20080;-74
2021/04/11 05:37:45;;;;;;;2.30;1.33;;;5.60;77.10;;;;;;5096683;28;20131;-74
2021/04/11 05:40:17;;;;;;;3.65;1.30;;;5.60;77.20;;;;;;5097635;28;20494;-73
2021/04/11 05:42:55;;;;;;;2.80;1.30;;;5.60;77.30;;;;;;5113427;28;20145;-73
2021/04/11 05:45:30;;;;;;;1.75;1.10;;;5.60;77.50;;;;;;5097353;28;20048;-73
2021/04/11 05:48:13;;;;;;;3.00;1.08;;;5.60;77.60;;;;;;5097604;28;20040;-74
2021/04/11 05:50:44;;;;;;;2.00;0.93;;;5.50;77.60;;;;;;5114571;27;20044;-73
2021/04/11 05:53:22;;;;;;;1.77;0.93;;;5.60;77.70;;;;;;5080303;28;20051;-75
2021/04/11 05:56:00;;;;;;;1.20;1.00;;;5.60;77.80;;;;;;5096690;28;20215;-74
2021/04/11 05:58:27;;;;;;;2.03;1.27;;;5.50;77.80;;;;;;5080492;28;20043;-74
2021/04/11 06:00:59;;;;;;;1.45;0.90;;;5.50;77.80;;;;;;5096716;28;20050;-75
2021/04/11 06:03:25;;;;;;;2.05;0.80;;;5.60;77.90;;;;;;5080262;28;20041;-73
2021/04/11 06:06:03;;;;;;;1.42;0.75;;;5.50;77.80;;;;;;5096366;28;20373;-74
2021/04/11 06:09:03;;;;;;;1.65;0.85;;;5.60;78.00;;;;;;5097011;28;20139;-73
2021/04/11 06:11:46;;;;;;;3.20;1.15;;;5.60;78.00;;;;;;5097167;28;20047;-74
2021/04/11 06:14:19;;;;;;;1.83;1.13;;;5.60;78.00;;;;;;5080240;28;20127;-74
2021/04/11 06:16:44;;;;;;;1.75;1.10;;;5.60;77.80;;;;;;5096207;28;20040;-75
2021/04/11 06:19:10;;;;;;;3.63;1.00;;;5.60;77.80;;;;;;5096390;28;20131;-74
2021/04/11 06:21:51;;;;;;;2.20;1.00;;;5.60;77.80;;;;;;5094777;28;20083;-74
2021/04/11 06:24:40;;;;;;;2.05;1.13;;;5.60;77.80;;;;;;5097555;28;20646;-74
2021/04/11 06:27:09;;;;;;;1.73;1.27;;;5.60;77.70;;;;;;5096482;28;20044;-75
2021/04/11 06:30:03;;;;;;;1.67;1.17;;;5.50;77.70;;;;;;5095635;28;20044;-74
2021/04/11 06:32:32;;;;;;;2.85;1.60;;;5.60;77.90;;;;;;5082695;28;20114;-73
2021/04/11 06:35:00;;;;;;;2.17;1.25;;;5.60;77.90;;;;;;5096142;28;20044;-74
2021/04/11 06:37:26;;;;;;;3.10;1.42;;;5.60;77.80;;;;;;5095962;28;20141;-74
2021/04/11 06:39:52;;;;;;;2.08;1.27;;;5.70;77.90;;;;;;5078675;28;20245;-73
2021/04/11 06:42:42;;;;;;;3.05;1.60;;;5.70;78.00;;;;;;5096421;28;20055;-74
2021/04/11 06:45:45;;;;;;;2.47;1.42;;;5.70;78.20;;;;;;5096447;28;20497;-74
2021/04/11 06:48:31;;;;;;;1.75;1.23;;;5.70;78.20;;;;;;5097761;28;20110;-75
2021/04/11 06:51:17;;;;;;;2.45;1.15;;;5.80;78.00;;;;;;5096007;28;20056;-73
2021/04/11 06:54:20;;;;;;;2.53;1.35;;;5.70;77.70;;;;;;5081327;28;20132;-73
2021/04/11 06:57:18;;;;;;;4.28;1.25;;;5.80;77.90;;;;;;5078922;28;20040;-74
2021/04/11 07:00:18;;;;;;;3.35;1.38;;;5.70;77.80;;;;;;5068720;28;20053;-74
2021/04/11 07:03:09;;;;;;;4.20;1.80;;;5.70;77.60;;;;;;5095700;28;20068;-75
2021/04/11 07:05:59;;;;;;;4.65;2.00;;;5.70;77.60;;;;;;5096007;28;20051;-73
2021/04/11 07:08:44;;;;;;;3.03;1.60;;;5.70;77.60;;;;;;5096466;28;20116;-73
2021/04/11 07:11:28;;;;;;;5.38;1.67;;;5.80;77.70;;;;;;5095422;28;20036;-73
2021/04/11 07:13:54;;;;;;;3.72;1.85;;;5.80;77.70;;;;;;5085862;28;20132;-74
2021/04/11 07:16:32;;;;;;;2.97;1.67;;;5.80;77.60;;;;;;5091437;28;20088;-75
2021/04/11 07:19:12;;;;;;;4.05;1.95;;;5.90;77.70;;;;;;5085301;28;20028;-75
2021/04/11 07:22:09;;;;;;;5.20;1.83;;;5.90;77.60;;;;;;5089682;28;20125;-74
2021/04/11 07:25:05;;;;;;;3.83;2.00;;;5.90;77.60;;;;;;5090712;28;20068;-75
2021/04/11 07:28:07;;;;;;;3.33;1.50;;;6.00;77.70;;;;;;5073979;28;20123;-75
2021/04/11 07:30:46;;;;;;;4.80;1.80;;;6.00;77.50;;;;;;5090724;28;20061;-75
2021/04/11 07:33:24;;;;;;;4.60;2.03;;;6.00;77.20;;;;;;5057414;28;20047;-75
2021/04/11 07:36:04;;;;;;;3.90;1.30;;;6.10;77.30;;;;;;5091040;28;20040;-74
2021/04/11 07:38:42;;;;;;;2.58;1.45;;;6.10;77.20;;;;;;5091996;28;20051;-75
2021/04/11 07:41:14;;;;;;;3.08;1.33;;;6.10;77.40;;;;;;5093478;28;20400;-74
2021/04/11 07:44:31;;;;;;;5.03;1.25;;;6.20;77.20;;;;;;5095355;28;20063;-75
2021/04/11 07:47:13;;;;;;;5.70;1.80;;;6.20;77.00;;;;;;5067483;28;20063;-75
2021/04/11 07:50:07;;;;;;;2.92;1.27;;;6.20;77.00;;;;;;5067578;28;20036;-74
2021/04/11 07:52:54;;;;;;;6.40;1.88;;;6.30;77.00;;;;;;5093649;28;20131;-73
2021/04/11 07:55:48;;;;;;;4.60;1.48;;;6.30;76.90;;;;;;5091953;28;20175;-74
2021/04/11 07:58:48;;;;;;;4.13;1.58;;;6.40;76.90;;;;;;5092158;28;20032;-75
2021/04/11 08:01:32;;;;;;;6.30;1.67;;;6.40;76.70;;;;;;5093753;28;20036;-72
2021/04/11 08:04:07;;;;;;;3.85;1.45;;;6.40;76.50;;;;;;5090357;28;20036;-69
2021/04/11 08:06:52;;;;;;;3.35;1.50;;;6.40;76.40;;;;;;5093859;28;20048;-72
2021/04/11 08:09:27;;;;;;;6.68;2.00;;;6.50;76.40;;;;;;5091753;28;20063;-71
2021/04/11 08:12:15;;;;;;;6.00;1.92;;;6.60;76.70;;;;;;5104889;28;20036;-72
2021/04/11 08:15:09;;;;;;;4.90;1.80;;;6.70;76.10;;;;;;5074651;28;20037;-73
2021/04/11 08:18:02;;;;;;;5.80;1.58;;;6.70;75.80;;;;;;5081853;28;20048;-72
2021/04/11 08:20:37;;;;;;;6.63;1.80;;;6.70;75.60;;;;;;5094694;28;20120;-73
2021/04/11 08:23:06;;;;;;;4.57;1.77;;;6.80;75.50;;;;;;5088402;28;20055;-73
2021/04/11 08:26:07;;;;;;;5.28;2.05;;;6.80;75.50;;;;;;5090390;28;20036;-74
2021/04/11 08:29:11;;;;;;;6.13;2.58;;;6.80;75.70;;;;;;5092457;28;20044;-70
2021/04/11 08:31:45;;;;;;;3.95;1.40;;;6.90;75.50;;;;;;5086636;28;20544;-73
2021/04/11 08:34:27;;;;;;;4.85;1.73;;;6.80;75.10;;;;;;5106858;28;20079;-71
2021/04/11 08:37:04;;;;;;;5.85;1.80;;;6.90;75.40;;;;;;5074151;28;20478;-73
2021/04/11 08:39:46;;;;;;;4.22;1.50;;;6.90;75.20;;;;;;5091348;28;20067;-70
2021/04/11 08:42:49;;;;;;;5.40;1.88;;;6.90;74.50;;;;;;5080319;28;20070;-72
2021/04/11 08:45:34;;;;;;;3.00;1.70;;;6.90;74.20;;;;;;5091896;28;20119;-70
2021/04/11 08:48:39;;;;;;;5.50;1.85;;;6.80;74.40;;;;;;5086876;28;20032;-72
2021/04/11 08:51:07;;;;;;;4.28;2.30;;;6.90;74.70;;;;;;5091055;28;20162;-71
2021/04/11 08:53:55;;;;;;;7.13;1.88;;;6.90;74.60;;;;;;5088107;28;20423;-72
2021/04/11 08:56:49;;;;;;;2.72;1.60;;;6.90;74.30;;;;;;5079785;28;20059;-71
2021/04/11 08:59:24;;;;;;;5.68;1.90;;;7.00;74.30;;;;;;5120522;28;20073;-72
2021/04/11 09:02:43;;;;;;;4.00;2.38;;;6.90;74.00;;;;;;5062808;28;20127;-75
2021/04/11 09:05:12;;;;;;;5.55;2.05;;;6.90;73.50;;;;;;5004875;28;20057;-72
2021/04/11 09:08:01;;;;;;;5.05;1.83;;;6.90;73.80;;;;;;5081510;28;20052;-71
2021/04/11 09:10:52;;;;;;;3.70;1.85;;;6.90;73.70;;;;;;5049603;28;20067;-72
2021/04/11 09:13:31;;;;;;;4.97;1.98;;;6.90;73.80;;;;;;5091236;28;20104;-73
2021/04/11 09:16:04;;;;;;;5.85;1.90;;;6.90;73.80;;;;;;5107993;28;20126;-71
2021/04/11 09:18:43;;;;;;;6.50;1.98;;;6.90;73.60;;;;;;5075206;28;20090;-71
2021/04/11 09:21:24;;;;;;;3.25;1.70;;;6.90;73.40;;;;;;5091765;28;20124;-71
2021/04/11 09:23:50;;;;;;;3.22;1.77;;;6.90;73.60;;;;;;5092495;28;20133;-71
2021/04/11 09:26:29;;;;;;;3.78;1.83;;;6.90;73.40;;;;;;5092822;28;20468;-74
2021/04/11 09:29:07;;;;;;;4.85;1.60;;;7.00;73.70;;;;;;5057302;28;20040;-71
2021/04/11 09:32:10;;;;;;;6.93;1.90;;;7.10;73.80;;;;;;5123781;27;20040;-70
2021/04/11 09:35:10;;;;;;;6.47;2.55;;;7.20;74.30;;;;;;5089648;28;20143;-71
2021/04/11 09:37:55;;;;;;;4.07;1.85;;;7.20;73.90;;;;;;5088818;28;20097;-70
2021/04/11 09:40:24;;;;;;;3.78;1.75;;;7.40;74.00;;;;;;5091079;28;20036;-71
2021/04/11 09:43:03;;;;;;;3.63;1.80;;;7.30;73.00;;;;;;5091906;28;20036;-69
2021/04/11 09:45:32;;;;;;;2.83;1.38;;;7.30;73.80;;;;;;5074235;28;20100;-67
2021/04/11 09:48:10;;;;;;;3.80;1.27;;;7.80;75.70;;;;;;5091452;28;20040;-73
2021/04/11 09:50:47;;;;;;;4.13;1.83;;;8.50;75.00;;;;;;5089285;28;20052;-69
2021/04/11 09:54:10;;;;;;;4.43;1.58;;;8.60;72.10;;;;;;5087629;28;20074;-69
2021/04/11 09:56:51;;;;;;;3.70;2.08;;;8.50;70.40;;;;;;5028440;28;20064;-72
2021/04/11 09:59:32;;;;;;;5.45;2.08;;;8.30;70.60;;;;;;5042449;28;20051;-70
2021/04/11 10:02:03;;;;;;;5.32;1.75;;;8.20;70.90;;;;;;5076435;28;20060;-73
2021/04/11 10:04:49;;;;;;;3.70;1.63;;;8.10;70.60;;;;;;5069928;28;20036;-70
2021/04/11 10:07:33;;;;;;;4.60;1.88;;;8.00;70.30;;;;;;5082934;28;20048;-70
2021/04/11 10:10:07;;;;;;;4.25;1.70;;;7.90;70.90;;;;;;5086368;28;20040;-72
2021/04/11 10:12:39;;;;;;;5.75;2.15;;;7.90;71.00;;;;;;5088487;28;20036;-70
2021/04/11 10:15:29;;;;;;;2.80;1.67;;;7.90;71.20;;;;;;5088191;28;20059;-71
2021/04/11 10:18:14;;;;;;;5.47;1.80;;;7.80;70.80;;;;;;5086688;28;20067;-71
2021/04/11 10:20:43;;;;;;;4.40;1.75;;;7.80;70.60;;;;;;5088724;28;20047;-72
2021/04/11 10:23:31;;;;;;;3.33;1.63;;;7.80;71.00;;;;;;5087767;28;20092;-71
2021/04/11 10:26:21;;;;;;;3.60;1.65;;;7.80;70.90;;;;;;5080824;28;20040;-71
2021/04/11 10:28:51;;;;;;;2.88;1.42;;;7.90;71.30;;;;;;5070150;28;20047;-70
2021/04/11 10:31:27;;;;;;;4.65;2.05;;;7.90;71.30;;;;;;5104024;28;20176;-70
2021/04/11 10:34:12;;;;;;;6.22;1.65;;;8.00;71.60;;;;;;5078332;28;20040;-71
2021/04/11 10:37:07;;;;;;;4.25;2.17;;;8.10;71.30;;;;;;5095095;28;20128;-71
2021/04/11 10:39:57;;;;;;;4.55;2.38;;;8.10;71.10;;;;;;5078498;28;20496;-69
2021/04/11 10:42:32;;;;;;;4.00;1.95;;;8.10;70.30;;;;;;5076461;28;20055;-70
2021/04/11 10:45:03;;;;;;;2.95;1.73;;;8.00;70.60;;;;;;5085667;28;20381;-69
2021/04/11 10:48:10;;;;;;;4.07;1.42;;;8.00;70.80;;;;;;5069477;28;20076;-68
2021/04/11 10:51:07;;;;;;;4.65;1.75;;;8.00;70.60;;;;;;5081028;28;20119;-69
2021/04/11 10:53:54;;;;;;;3.90;1.60;;;8.00;70.80;;;;;;5109858;27;20515;-68
2021/04/11 10:56:26;;;;;;;3.38;1.40;;;8.00;71.30;;;;;;5087393;28;20044;-69
2021/04/11 10:59:21;;;;;;;3.97;1.50;;;8.00;71.10;;;;;;5083248;28;20040;-70
2021/04/11 11:01:49;;;;;;;3.53;1.88;;;8.10;71.80;;;;;;5075063;28;20098;-70
2021/04/11 11:04:52;;;;;;;2.50;1.42;;;8.10;71.50;;;;;;5120201;27;20097;-73
2021/04/11 11:07:55;;;;;;;4.03;1.80;;;8.30;73.20;;;;;;5090101;28;20468;-71
2021/04/11 11:10:48;;;;;;;6.10;2.20;;;8.50;71.80;;;;;;5087320;28;20470;-71
2021/04/11 11:13:26;;;;;;;3.40;1.75;;;8.50;71.00;;;;;;5087993;28;20036;-72
2021/04/11 11:16:16;;;;;;;3.00;1.25;;;8.40;70.60;;;;;;5090965;28;20072;-70
2021/04/11 11:19:15;;;;;;;2.10;1.55;;;8.40;70.20;;;;;;5096864;28;20119;-70
2021/04/11 11:21:56;;;;;;;4.00;1.20;;;8.30;69.80;;;;;;5087407;28;20185;-72
2021/04/11 11:24:31;;;;;;;4.03;1.42;;;8.20;70.10;;;;;;5085981;28;20485;-74
2021/04/11 11:27:03;;;;;;;2.45;1.08;;;8.30;70.80;;;;;;5089639;28;20047;-69
2021/04/11 11:29:50;;;;;;;1.60;1.13;;;8.40;71.50;;;;;;5086576;28;20067;-70
2021/04/11 11:32:45;;;;;;;3.88;1.30;;;8.50;71.40;;;;;;5085734;28;20286;-72
2021/04/11 11:35:12;;;;;;;3.25;1.33;;;8.70;71.50;;;;;;5106661;27;20032;-71
2021/04/11 11:37:54;;;;;;;2.88;1.10;;;8.80;71.00;;;;;;5054119;28;20040;-71
2021/04/11 11:40:42;;;;;;;3.03;1.08;;;8.90;71.20;;;;;;5084404;28;20186;-72
2021/04/11 11:43:29;;;;;;;3.45;1.05;;;9.00;70.10;;;;;;5081459;28;20441;-74
2021/04/11 11:46:04;;;;;;;2.65;1.25;;;9.00;70.30;;;;;;5080056;28;20084;-73
2021/04/11 11:48:46;;;;;;;5.35;1.52;;;9.10;69.90;;;;;;5071153;28;20031;-72
2021/04/11 11:51:33;;;;;;;3.88;1.55;;;9.00;69.70;;;;;;5068204;28;20059;-74
2021/04/11 11:54:09;;;;;;;2.22;1.02;;;9.10;69.70;;;;;;5086055;28;20460;-72
2021/04/11 11:56:56;;;;;;;2.03;0.90;;;9.10;69.30;;;;;;5089874;28;20477;-73
2021/04/11 11:59:26;;;;;;;2.40;1.00;;;9.30;69.50;;;;;;5083538;28;20098;-72
2021/04/11 12:01:56;;;;;;;5.38;1.45;;;9.40;69.20;;;;;;5073335;28;20105;-72
2021/04/11 12:04:42;;;;;;;2.20;1.10;;;9.60;69.40;;;;;;5122341;27;20048;-72
2021/04/11 12:07:23;;;;;;;3.28;1.33;;;9.80;69.10;;;;;;5083951;28;20043;-71
2021/04/11 12:10:08;;;;;;;2.22;0.93;;;10.00;68.60;;;;;;5060150;28;20039;-72
2021/04/11 12:12:36;;;;;;;2.72;0.80;;;10.10;67.70;;;;;;5074541;28;20065;-72
2021/04/11 12:15:17;;;;;;;2.05;1.08;;;10.20;66.80;;;;;;5055481;28;20040;-77
2021/04/11 12:17:51;;;;;;;2.95;1.00;;;10.20;66.10;;;;;;5068143;28;20052;-72
2021/04/11 12:20:27;;;;;;;2.78;0.85;;;10.20;65.80;;;;;;5074358;28;20044;-70
2021/04/11 12:23:13;;;;;;;3.33;0.85;;;10.20;65.70;;;;;;5091963;28;20072;-72
2021/04/11 12:25:39;;;;;;;2.72;1.02;;;10.20;65.40;;;;;;5096980;28;20086;-70
2021/04/11 12:28:25;;;;;;;1.73;0.90;;;10.20;65.00;;;;;;5090295;28;20078;-72
2021/04/11 12:30:52;;;;;;;3.50;1.13;;;10.20;64.00;;;;;;5070639;28;20119;-71
2021/04/11 12:33:30;;;;;;;3.63;1.38;;;10.30;65.10;;;;;;5088208;28;20040;-69
2021/04/11 12:36:02;;;;;;;2.20;0.85;;;10.30;64.60;;;;;;5092041;28;20045;-71
2021/04/11 12:38:45;;;;;;;1.85;1.00;;;10.40;64.20;;;;;;5088214;28;20035;-72
2021/04/11 12:41:21;;;;;;;3.00;1.45;;;10.50;63.50;;;;;;5090646;28;20040;-70
2021/04/11 12:43:49;;;;;;;3.00;1.60;;;10.60;63.00;;;;;;5091053;28;20039;-73
2021/04/11 12:46:27;;;;;;;3.03;1.40;;;10.60;62.80;;;;;;5071620;28;20048;-79
2021/04/11 12:49:22;;;;;;;2.25;1.58;;;10.50;62.20;;;;;;5111268;27;20036;-71
2021/04/11 12:52:11;;;;;;;2.78;1.40;;;10.30;61.80;;;;;;5075769;28;20036;-69
2021/04/11 12:54:45;;;;;;;3.05;1.20;;;10.10;62.00;;;;;;5108952;27;20119;-69
2021/04/11 12:57:23;;;;;;;2.45;1.05;;;10.00;63.00;;;;;;5109641;28;20040;-73
2021/04/11 13:00:13;;;;;;;3.65;1.30;;;9.90;63.40;;;;;;5124821;27;20059;-72
2021/04/11 13:02:48;;;;;;;5.20;1.77;;;9.90;66.30;;;;;;5092791;28;20044;-74
2021/04/11 13:05:29;;;;;;;3.72;1.55;;;10.20;65.40;;;;;;5092555;28;20114;-70
2021/04/11 13:07:58;;;;;;;3.83;2.10;;;10.20;64.20;;;;;;5089528;28;20059;-70
2021/04/11 13:10:28;;;;;;;2.67;1.50;;;10.10;64.00;;;;;;5076075;28;20377;-71
2021/04/11 13:13:03;;;;;;;3.00;1.30;;;10.00;63.40;;;;;;5075694;28;20066;-68
2021/04/11 13:15:31;;;;;;;3.55;1.20;;;10.00;63.80;;;;;;5117947;27;20044;-69
2021/04/11 13:18:19;;;;;;;2.25;1.15;;;9.90;63.80;;;;;;5091663;28;20028;-76
2021/04/11 13:20:58;;;;;;;3.70;0.98;;;9.90;64.10;;;;;;5087305;28;20051;-72
2021/04/11 13:23:31;;;;;;;3.15;1.38;;;10.20;64.80;;;;;;5090085;28;20120;-68
2021/04/11 13:26:04;;;;;;;;;;;10.50;65.50;;;;;;5082699;28;20044;-74
2021/04/11 13:28:35;;;;;;;3.80;1.10;;;10.90;64.60;;;;;;5086381;28;19931;-71
2021/04/11 13:31:11;;;;;;;1.30;0.80;;;11.10;62.60;;;;;;5066272;28;20504;-70
2021/04/11 13:33:57;;;;;;;1.70;0.90;;;11.30;63.50;;;;;;5087528;28;20116;-71
2021/04/11 13:36:40;;;;;;;2.80;0.82;;;11.20;60.90;;;;;;5075274;28;20461;-72
2021/04/11 13:39:36;;;;;;;3.00;0.80;;;11.10;60.20;;;;;;5089844;28;20078;-71
2021/04/11 13:42:12;;;;;;;2.42;0.90;;;11.10;60.60;;;;;;5081911;28;20173;-71
2021/04/11 13:45:02;;;;;;;3.55;1.00;;;11.10;60.30;;;;;;5092922;28;20084;-71
2021/04/11 13:47:37;;;;;;;2.70;1.05;;;11.10;60.10;;;;;;5091158;28;20060;-69
2021/04/11 13:50:16;;;;;;;4.28;1.38;;;11.20;60.60;;;;;;5072655;28;20106;-68
2021/04/11 13:53:07;;;;;;;4.65;1.70;;;11.40;60.40;;;;;;5089772;28;20487;-69